Latest Weather Observations for Mount Boyce

IDN60801

Issued at 7:32 am EDT Tuesday 24 October 2017 (issued every 30 minutes, with the page automatically refreshed every 10 minutes)

About weather observations | Map of weather stations | Latest weather observations for NSW | Other Formats
Station Details ID: 063292 Name: MOUNT BOYCE AWS Lat: -33.62 Lon: 150.27 Height: 1080.0 m
Data from the previous 72 hours. | See also: Recent months at Mount Boyce
Date/Time
EDT
Temp
°C
App
Temp
°C
Dew
Point
°C
Rel
Hum
%
Delta-T
°C
Wind Press
QNH
hPa
Press
MSL
hPa
Rain since
9am
mm
Dir  Spd
km/h
Gust
km/h
Spd
kts
Gust
kts
24/07:30am 9.9 8.6 9.8 99 0.1 WNW 7 13 4 7 - - 0.0
24/07:00am 8.8 6.8 8.7 99 0.1 W 9 11 5 6 - - 0.0
24/06:30am 8.3 6.2 8.2 99 0.1 W 9 13 5 7 - - 0.0
24/06:00am 8.2 5.3 8.1 99 0.1 WSW 13 17 7 9 - - 0.0
24/05:30am 8.6 5.8 8.5 99 0.1 WSW 13 15 7 8 - - 0.0
24/05:00am 8.7 6.7 8.6 99 0.1 W 9 11 5 6 - - 0.0
24/04:30am 8.3 5.8 8.2 99 0.1 WNW 11 15 6 8 - - 0.0
24/04:00am 8.2 6.1 8.2 100 0.0 W 9 11 5 6 - - 0.0
24/03:30am 8.3 6.6 8.3 100 0.0 W 7 9 4 5 - - 0.0
24/03:00am 8.1 6.3 8.1 100 0.0 W 7 9 4 5 - - 0.0
24/02:30am 8.0 6.2 8.0 100 0.0 WNW 7 9 4 5 - - 0.0
24/02:00am 8.5 6.4 8.4 99 0.1 NW 9 15 5 8 - - 0.0
24/01:30am 8.4 6.7 8.4 100 0.0 NW 7 11 4 6 - - 0.0
24/01:00am 8.8 6.8 8.8 100 0.0 N 9 13 5 7 - - 0.0
24/12:30am 8.9 6.6 8.9 100 0.0 N 11 15 6 8 - - 0.0
24/12:26am 9.0 6.7 9.0 100 0.0 N 11 15 6 8 - - 0.0
24/12:00am 9.0 6.3 9.0 100 0.0 NNE 13 19 7 10 - - 0.0
 
Date/Time
EDT
Temp
°C
App
Temp
°C
Dew
Point
°C
Rel
Hum
%
Delta-T
°C
Wind Press
QNH
hPa
Press
MSL
hPa
Rain since
9am
mm
Dir  Spd
km/h
Gust
km/h
Spd
kts
Gust
kts
23/11:51pm 9.1 6.4 9.1 100 0.0 NNE 13 19 7 10 - - 0.0
23/11:42pm 9.1 6.8 9.1 100 0.0 NE 11 17 6 9 - - 0.0
23/11:30pm 9.1 6.8 9.1 100 0.0 NE 11 15 6 8 - - 0.0
23/11:00pm 9.6 7.5 9.6 100 0.0 NE 11 20 6 11 - - 0.0
23/10:30pm 9.6 7.5 9.6 100 0.0 ENE 11 20 6 11 - - 0.0
23/10:00pm 9.5 7.3 9.5 100 0.0 ENE 11 15 6 8 - - 0.0
23/09:42pm 8.9 6.6 8.9 100 0.0 ENE 11 15 6 8 - - 0.0
23/09:30pm 8.8 6.4 8.8 100 0.0 ENE 11 15 6 8 - - 0.0
23/09:00pm 9.1 6.8 9.1 100 0.0 ENE 11 15 6 8 - - 0.0
23/08:30pm 9.3 7.4 9.2 99 0.1 ENE 9 13 5 7 - - 0.0
23/08:00pm 9.9 8.2 9.8 99 0.1 ENE 9 13 5 7 - - 0.0
23/07:30pm 11.0 9.9 10.8 99 0.1 ENE 7 13 4 7 - - 0.0
23/07:00pm 13.1 12.3 11.8 92 0.7 ENE 7 13 4 7 - - 0.0
23/06:30pm 15.1 14.6 12.8 86 1.3 ENE 7 13 4 7 - - 0.0
23/06:00pm 15.8 15.3 12.5 81 1.9 ENE 7 13 4 7 - - 0.0
23/05:30pm 16.7 15.9 12.8 78 2.3 ENE 9 13 5 7 - - 0.0
23/05:00pm 16.9 16.6 13.2 79 2.2 ENE 7 11 4 6 - - 0.0
23/04:30pm 16.1 15.1 12.3 78 2.2 NE 9 15 5 8 - - 0.0
23/04:00pm 15.8 15.8 12.5 81 1.9 E 4 9 2 5 - - 0.0
23/03:30pm 14.7 14.5 11.7 82 1.7 SE 4 9 2 5 - - 0.0
23/03:00pm 15.6 15.1 12.0 79 2.1 ESE 6 13 3 7 - - 0.0
23/02:30pm 15.5 14.3 11.5 77 2.3 NNE 9 17 5 9 - - 0.0
23/02:00pm 13.7 13.6 10.9 83 1.6 ENE 2 9 1 5 - - 0.0
23/01:30pm 13.7 12.9 11.2 85 1.4 SSW 6 11 3 6 - - 0.0
23/01:00pm 15.2 14.3 12.7 85 1.5 N 9 15 5 8 - - 0.0
23/12:30pm 15.4 14.9 13.8 90 0.9 NNE 9 15 5 8 - - 0.0
23/12:00pm 12.2 11.3 10.8 91 0.8 WNW 6 11 3 6 - - 0.0
23/11:30am 12.9 12.1 11.8 93 0.6 NNE 7 13 4 7 - - 0.0
23/11:00am 11.1 10.1 10.9 99 0.1 E 7 13 4 7 - - 0.0
23/10:30am 10.4 8.8 10.2 99 0.1 E 9 15 5 8 - - 0.0
23/10:00am 10.2 8.9 10.1 99 0.1 E 7 13 4 7 - - 0.0
23/09:48am 9.9 8.8 9.8 99 0.1 ENE 6 9 3 5 - - 0.0
23/09:30am 9.5 8.1 9.4 99 0.1 ENE 7 13 4 7 - - 0.0
23/09:00am 9.3 7.8 9.2 99 0.1 E 7 13 4 7 - - 30.2
23/08:30am 8.4 6.3 8.4 100 0.0 E 9 17 5 9 - - 30.2
23/08:22am 9.0 7.1 9.0 100 0.0 E 9 17 5 9 - - 30.2
23/08:00am 7.7 5.5 7.7 100 0.0 ESE 9 20 5 11 - - 30.2
23/07:34am 7.1 4.7 7.1 100 0.0 E 9 17 5 9 - - 30.2
23/07:30am 7.1 5.1 7.1 100 0.0 E 7 15 4 8 - - 30.2
23/07:15am 6.8 4.9 6.8 100 0.0 E 6 13 3 7 - - 30.2
23/07:00am 6.3 4.1 6.3 100 0.0 E 7 11 4 6 - - 30.2
23/06:54am 6.0 3.8 6.0 100 0.0 E 7 11 4 6 - - 30.2
23/06:47am 5.6 3.3 5.6 100 0.0 E 7 11 4 6 - - 30.2
23/06:46am 5.6 3.3 5.6 100 0.0 E 7 11 4 6 - - 30.2
23/06:45am 5.5 3.2 5.5 100 0.0 E 7 11 4 6 - - 30.2
23/06:30am 4.8 2.5 4.8 100 0.0 E 6 7 3 4 - - 30.2
23/06:04am 4.8 2.3 4.8 100 0.0 ENE 7 9 4 5 - - 30.2
23/06:00am 4.7 2.2 4.7 100 0.0 ENE 7 9 4 5 - - 30.2
23/05:30am 4.6 2.3 4.6 100 0.0 E 6 9 3 5 - - 30.2
23/05:00am 4.9 2.4 4.9 100 0.0 E 7 11 4 6 - - 30.2
23/04:36am 5.5 3.2 5.5 100 0.0 ESE 7 13 4 7 - - 30.2
23/04:30am 5.5 3.2 5.5 100 0.0 SE 7 13 4 7 - - 30.2
23/04:21am 5.7 4.3 5.7 100 0.0 SE 2 7 1 4 - - 30.2
23/04:00am 6.2 4.6 6.2 100 0.0 E 4 7 2 4 - - 30.2
23/03:50am 6.2 4.2 6.2 100 0.0 ENE 6 9 3 5 - - 30.0
23/03:46am 6.2 4.0 6.2 100 0.0 E 7 11 4 6 - - 30.0
23/03:30am 6.3 4.7 6.3 100 0.0 E 4 9 2 5 - - 30.0
23/03:13am 6.4 5.2 6.4 100 0.0 E 2 11 1 6 - - 30.0
23/03:00am 6.4 4.2 6.4 100 0.0 E 7 11 4 6 - - 30.0
23/02:40am 6.4 4.2 6.4 100 0.0 E 7 13 4 7 - - 29.6
23/02:30am 6.4 4.2 6.4 100 0.0 E 7 11 4 6 - - 29.2
23/02:00am 6.1 3.9 6.1 100 0.0 E 7 11 4 6 - - 25.2
23/01:30am 6.1 3.9 6.1 100 0.0 E 7 13 4 7 - - 21.6
23/01:05am 6.3 3.7 6.3 100 0.0 SE 9 13 5 7 - - 19.0
23/01:00am 6.4 3.9 6.4 100 0.0 SE 9 13 5 7 - - 18.4
23/12:30am 6.4 3.9 6.4 100 0.0 WSW 9 17 5 9 - - 14.4
23/12:00am 6.7 3.8 6.7 100 0.0 SW 11 17 6 9 - - 11.2
 
Date/Time
EDT
Temp
°C
App
Temp
°C
Dew
Point
°C
Rel
Hum
%
Delta-T
°C
Wind Press
QNH
hPa
Press
MSL
hPa
Rain since
9am
mm
Dir  Spd
km/h
Gust
km/h
Spd
kts
Gust
kts
22/11:35pm 6.9 4.9 6.9 100 0.0 SSW 7 13 4 7 - - 10.2
22/11:30pm 6.9 4.5 6.9 100 0.0 SSE 9 13 5 7 - - 10.0
22/11:28pm 6.9 4.5 6.9 100 0.0 SE 9 13 5 7 - - 10.0
22/11:12pm 6.4 4.8 6.4 100 0.0 SW 4 9 2 5 - - 9.8
22/11:00pm 6.4 4.4 6.4 100 0.0 NNW 6 13 3 7 - - 9.8
22/10:42pm 6.2 2.9 6.2 100 0.0 E 13 22 7 12 - - 9.8
22/10:30pm 6.0 2.2 6.0 100 0.0 E 15 28 8 15 - - 9.6
22/10:22pm 5.9 2.1 5.9 100 0.0 E 15 28 8 15 - - 9.2
22/10:00pm 6.3 2.6 6.2 99 0.0 SSW 15 30 8 16 - - 3.2
22/09:30pm 8.2 5.7 8.2 100 0.0 ENE 11 17 6 9 - - 0.6
22/09:00pm 8.4 6.3 8.4 100 0.0 ENE 9 19 5 10 - - 0.6
22/08:30pm 8.9 7.0 8.9 100 0.0 ENE 9 17 5 9 - - 0.6
22/08:00pm 9.2 7.3 9.2 100 0.0 ENE 9 17 5 9 - - 0.6
22/07:30pm 9.4 7.6 9.4 100 0.0 ENE 9 13 5 7 - - 0.6
22/07:00pm 9.7 8.0 9.7 100 0.0 ENE 9 17 5 9 - - 0.6
22/06:30pm 9.9 7.8 9.9 100 0.0 ENE 11 17 6 9 - - 0.6
22/06:00pm 10.5 8.6 10.5 100 0.0 ENE 11 15 6 8 - - 0.2
22/05:54pm 10.5 8.6 10.5 100 0.0 ENE 11 22 6 12 - - 0.0
22/05:37pm 11.2 9.4 11.0 99 0.1 ENE 11 20 6 11 - - 0.0
22/05:30pm 11.8 10.2 11.6 99 0.1 ENE 11 19 6 10 - - 0.0
22/05:00pm 12.6 11.6 12.4 99 0.1 ENE 9 19 5 10 - - 0.0
22/04:30pm 12.9 12.4 12.7 99 0.1 ENE 7 11 4 6 - - 0.0
22/04:00pm 12.0 10.9 11.8 99 0.1 ENE 9 15 5 8 - - 0.0
22/03:30pm 11.9 11.1 11.7 99 0.1 ENE 7 13 4 7 - - 0.0
22/03:00pm 12.3 11.7 11.8 97 0.3 E 6 11 3 6 - - 0.0
22/02:30pm 13.0 11.8 11.6 91 0.8 SSE 9 13 5 7 - - 0.0
22/02:00pm 13.4 10.8 9.3 76 2.2 WSW 13 20 7 11 - - 0.0
22/01:30pm 13.3 11.2 9.9 80 1.9 SW 11 20 6 11 - - 0.0
22/01:00pm 14.6 11.9 10.2 75 2.4 WSW 15 22 8 12 - - 0.0
22/12:30pm 15.1 12.2 10.9 76 2.4 WSW 17 22 9 12 - - 0.0
22/12:00pm 14.6 12.3 10.4 76 2.3 WSW 13 20 7 11 - - 0.0
22/11:30am 13.2 10.6 10.7 85 1.4 W 15 20 8 11 - - 0.0
22/11:00am 12.1 10.3 10.8 92 0.7 WSW 11 19 6 10 - - 0.0
22/10:30am 11.3 10.3 11.0 98 0.2 WSW 7 19 4 10 - - 0.0
22/10:00am 10.6 8.7 10.4 99 0.1 WSW 11 19 6 10 - - 0.0
22/09:30am 9.6 7.0 9.5 99 0.1 W 13 17 7 9 - - 0.0
22/09:00am 8.6 7.1 8.5 99 0.1 WSW 6 9 3 5 - - 0.0
22/08:30am 8.0 7.1 7.9 99 0.1 W 2 7 1 4 - - 0.0
22/08:00am 7.5 6.1 7.4 99 0.0 NNW 4 9 2 5 - - 0.0
22/07:30am 6.8 4.9 6.8 100 0.0 NNW 6 13 3 7 - - 0.0
22/07:00am 5.8 4.5 5.8 100 0.0 NW 2 6 1 3 - - 0.0
22/06:30am 5.3 4.2 5.3 100 0.0 CALM 0 0 0 0 - - 0.0
22/06:00am 5.2 4.1 5.1 99 0.0 CALM 0 0 0 0 - - 0.0
22/05:56am 5.3 4.2 5.2 99 0.0 CALM 0 0 0 0 - - 0.0
22/05:55am 5.3 4.2 5.2 99 0.0 CALM 0 0 0 0 - - 0.0
22/05:40am 5.6 4.6 5.5 99 0.0 CALM 0 6 0 3 - - 0.0
22/05:30am 5.8 4.8 5.7 99 0.0 CALM 0 6 0 3 - - 0.0
22/05:00am 6.4 4.2 6.4 100 0.0 NE 7 9 4 5 - - 0.0
22/04:30am 6.5 5.3 6.5 100 0.0 NNE 2 7 1 4 - - 0.0
22/04:00am 6.5 4.9 6.5 100 0.0 NNE 4 7 2 4 - - 0.0
22/03:30am 6.6 4.7 6.6 100 0.0 NNE 6 9 3 5 - - 0.0
22/03:15am 6.5 4.6 6.5 100 0.0 NNE 6 11 3 6 - - 0.0
22/03:00am 6.7 5.6 6.7 100 0.0 NNE 2 7 1 4 - - 0.0
22/02:47am 6.7 5.2 6.7 100 0.0 NE 4 9 2 5 - - 0.0
22/02:30am 6.8 5.7 6.8 100 0.0 NE 2 6 1 3 - - 0.0
22/02:03am 6.8 4.9 6.8 100 0.0 NE 6 9 3 5 - - 0.0
22/02:00am 6.8 4.9 6.8 100 0.0 NE 6 9 3 5 - - 0.0
22/01:50am 6.8 5.3 6.8 100 0.0 ENE 4 7 2 4 - - 0.0
22/01:49am 6.7 5.2 6.7 100 0.0 ENE 4 7 2 4 - - 0.0
22/01:30am 6.6 4.5 6.6 100 0.0 NE 7 11 4 6 - - 0.0
22/01:13am 6.7 4.6 6.7 100 0.0 NE 7 11 4 6 - - 0.0
22/01:00am 6.5 4.4 6.5 100 0.0 NE 7 11 4 6 - - 0.0
22/12:55am 6.5 4.4 6.5 100 0.0 NE 7 11 4 6 - - 0.0
22/12:30am 6.8 4.7 6.8 100 0.0 NE 7 9 4 5 - - 0.0
22/12:00am 6.7 4.6 6.7 100 0.0 ENE 7 11 4 6 - - 0.0
 
Date/Time
EDT
Temp
°C
App
Temp
°C
Dew
Point
°C
Rel
Hum
%
Delta-T
°C
Wind Press
QNH
hPa
Press
MSL
hPa
Rain since
9am
mm
Dir  Spd
km/h
Gust
km/h
Spd
kts
Gust
kts
21/11:30pm 6.6 4.1 6.6 100 0.0 NE 9 13 5 7 - - 0.0
21/11:28pm 6.6 4.1 6.6 100 0.0 NE 9 13 5 7 - - 0.0
21/11:16pm 6.4 4.2 6.4 100 0.0 NE 7 9 4 5 - - 0.0
21/11:15pm 6.4 4.2 6.4 100 0.0 NE 7 9 4 5 - - 0.0
21/11:00pm 6.7 4.2 6.7 100 0.0 ENE 9 13 5 7 - - 0.0
21/10:30pm 6.9 4.5 6.9 100 0.0 ENE 9 13 5 7 - - 0.0
21/10:00pm 7.0 4.6 7.0 100 0.0 ENE 9 13 5 7 - - 0.0
21/09:30pm 6.9 4.5 6.9 100 0.0 ENE 9 17 5 9 - - 0.0
21/09:00pm 7.0 4.6 7.0 100 0.0 ENE 9 13 5 7 - - 0.0
21/08:53pm 7.0 4.2 7.0 100 0.0 ENE 11 13 6 7 - - 0.0
21/08:30pm 7.0 4.6 6.9 99 0.0 ENE 9 15 5 8 - - 0.0
21/08:00pm 7.5 4.8 7.4 99 0.0 ENE 11 17 6 9 - - 0.0
21/07:30pm 8.3 6.2 8.2 99 0.1 ENE 9 15 5 8 - - 0.0
21/07:00pm 10.0 8.3 9.9 99 0.1 ENE 9 19 5 10 - - 0.0
21/06:30pm 11.6 10.1 10.7 94 0.5 E 9 17 5 9 - - 0.0
21/06:00pm 12.6 11.8 11.2 91 0.8 ENE 6 9 3 5 - - 0.0
21/05:30pm 13.2 12.1 10.7 85 1.4 E 7 11 4 6 - - 0.0
21/05:00pm 13.3 11.8 10.7 84 1.4 NE 9 15 5 8 - - 0.0
21/04:30pm 13.5 12.4 10.7 83 1.6 E 7 15 4 8 - - 0.0
21/04:00pm 12.1 10.7 9.7 85 1.3 E 7 11 4 6 - - 0.0
21/03:30pm 12.6 12.3 10.1 85 1.4 E 2 7 1 4 - - 0.0
21/03:00pm 13.1 11.9 9.7 80 1.8 ENE 6 15 3 8 - - 0.0
21/02:30pm 14.6 13.4 11.6 82 1.7 E 9 17 5 9 - - 0.0
21/02:00pm 12.9 11.2 9.7 81 1.7 E 9 13 5 7 - - 0.0
21/01:30pm 13.0 11.7 11.1 88 1.1 E 9 19 5 10 - - 0.0
21/01:00pm 12.5 11.4 10.7 89 1.0 E 7 13 4 7 - - 0.0
21/12:30pm 11.6 9.6 10.0 90 0.9 E 11 17 6 9 - - 0.0
21/12:00pm 10.5 8.7 9.3 92 0.6 E 9 15 5 8 - - 0.0
21/11:30am 10.7 8.9 9.5 92 0.6 E 9 19 5 10 - - 0.0
21/11:00am 10.3 8.5 9.5 95 0.4 E 9 17 5 9 - - 0.0
21/10:30am 8.2 6.4 8.1 99 0.1 ENE 7 15 4 8 - - 0.0
21/10:00am 7.4 5.1 7.3 99 0.0 SE 9 17 5 9 - - 0.0
21/09:47am 6.8 4.3 6.7 99 0.0 ESE 9 17 5 9 - - 0.0
21/09:30am 6.5 4.3 6.4 99 0.0 ESE 7 13 4 7 - - 0.0
21/09:00am 5.3 2.9 5.3 100 0.0 ESE 7 15 4 8 - - 26.0
21/08:57am 5.3 2.9 5.3 100 0.0 ESE 7 15 4 8 - - 26.0
21/08:30am 5.2 3.0 5.2 100 0.0 E 6 11 3 6 - - 26.0
21/08:00am 4.9 2.4 4.9 100 0.0 ESE 7 13 4 7 - - 26.0

Other Formats:

Comma delimited format used in spreadsheet applications
http://www.bom.gov.au/fwo/IDN60801/IDN60801.94743.axf

JavaScript Object Notation format (JSON) in row-major order
http://www.bom.gov.au/fwo/IDN60801/IDN60801.94743.json